Messwerte San José Del Cabo

Temperatur

Temperatur
°C
1624071600 21.00 21.00 32
1624075200 22.00 22.00 31
1624078800 23.00 23.00 31
1624082400 0.00 0.00 30
1624086000 1.00 1.00 29
1624089600 2.00 2.00
1624093200 3.00 3.00
1624096800 4.00 4.00
1624100400 5.00 5.00 26
1624104000 6.00 6.00 26
1624107600 7.00 7.00 26
1624111200 8.00 8.00 27
1624114800 9.00 9.00 30
1624118400 10.00 10.00 31
1624122000 11.00 11.00 33
1624125600 12.00 12.00 32
1624129200 13.00 13.00 33
1624132800 14.00 14.00
1624136400 15.00 15.00 33
1624140000 16.00 16.00 33
1624143600 17.00 17.00 34
1624147200 18.00 18.00 34
1624150800 19.00 19.00 34
1624154400 20.00 20.00 34

Aktuellste Messwerte

Wettercharakter
Wetter: freundlich
Temperatur
30 °C
Feuchtigkeit
50 %
Wind
20 km/hWindrichtung: Ost
Luftdruck
1007 hPa
Messzeit: 19. Juni 2021, 21.00Datenquelle: METAR

Weitere Messstationen in der Nähe

Messstation Temperatur Entfernung
La Paz - 129 km
Los Mochis - 289 km
Culiacán - 297 km
Mazatlán 24 °C 336 km
Loreto - 358 km

Wind

Windrichtung Böen Mittelwind
° km/h km/h
1624071600 21.00 20.00 - 21.00 30° 10
1624075200 22.00 21.00 - 22.00 0
1624078800 23.00 22.00 - 23.00 300° 10
1624082400 0.00 23.00 - 0.00 340° 10
1624086000 1.00 0.00 - 1.00 0
1624089600 2.00 1.00 - 2.00
1624093200 3.00 2.00 - 3.00
1624096800 4.00 3.00 - 4.00
1624100400 5.00 4.00 - 5.00 0
1624104000 6.00 5.00 - 6.00 0
1624107600 7.00 6.00 - 7.00 190° 5
1624111200 8.00 7.00 - 8.00 0
1624114800 9.00 8.00 - 9.00 90° 5
1624118400 10.00 9.00 - 10.00 90° 5
1624122000 11.00 10.00 - 11.00 130° 20
1624125600 12.00 11.00 - 12.00 140° 20
1624129200 13.00 12.00 - 13.00 160° 20
1624132800 14.00 13.00 - 14.00
1624136400 15.00 14.00 - 15.00 150° 30
1624140000 16.00 15.00 - 16.00 120° 30
1624143600 17.00 16.00 - 17.00 120° 30
1624147200 18.00 17.00 - 18.00 120° 30
1624150800 19.00 18.00 - 19.00 110° 20
1624154400 20.00 19.00 - 20.00 100° 20

Ihre Wetterstation

Fehlt Ihre Wetterstation auf unserem Portal?

Schreiben Sie an network@meteonews.ch